sensor_id;sensor_type;location;lat;lon;timestamp;pressure;altitude;pressure_sealevel;temperature;humidity
73245;BME280;61460;41.158;-73.238;2023-04-09T00:01:07;102917.14;;;23.59;37.78
73245;BME280;61460;41.158;-73.238;2023-04-09T00:03:37;102910.81;;;23.67;37.58
73245;BME280;61460;41.158;-73.238;2023-04-09T00:06:07;102914.31;;;23.70;37.44
73245;BME280;61460;41.158;-73.238;2023-04-09T00:08:37;102918.94;;;23.73;37.70
73245;BME280;61460;41.158;-73.238;2023-04-09T00:11:08;102915.83;;;23.80;37.34
73245;BME280;61460;41.158;-73.238;2023-04-09T00:13:39;102919.94;;;23.86;37.28
73245;BME280;61460;41.158;-73.238;2023-04-09T00:16:09;102924.92;;;23.85;37.40
73245;BME280;61460;41.158;-73.238;2023-04-09T00:18:40;102928.26;;;23.89;37.38
73245;BME280;61460;41.158;-73.238;2023-04-09T00:21:10;102930.18;;;23.91;37.27
73245;BME280;61460;41.158;-73.238;2023-04-09T00:23:41;102936.25;;;23.95;36.91
73245;BME280;61460;41.158;-73.238;2023-04-09T00:26:12;102932.76;;;23.98;37.07
73245;BME280;61460;41.158;-73.238;2023-04-09T00:28:42;102932.96;;;24.06;36.91
73245;BME280;61460;41.158;-73.238;2023-04-09T00:31:13;102936.22;;;24.13;36.63
73245;BME280;61460;41.158;-73.238;2023-04-09T00:33:43;102940.69;;;24.17;36.67
73245;BME280;61460;41.158;-73.238;2023-04-09T00:36:14;102939.96;;;24.16;36.61
73245;BME280;61460;41.158;-73.238;2023-04-09T00:38:44;102941.96;;;24.19;36.61
73245;BME280;61460;41.158;-73.238;2023-04-09T00:41:16;102947.84;;;24.10;36.49
73245;BME280;61460;41.158;-73.238;2023-04-09T00:43:45;102949.96;;;24.21;36.45
73245;BME280;61460;41.158;-73.238;2023-04-09T00:46:16;102954.38;;;24.23;36.23
73245;BME280;61460;41.158;-73.238;2023-04-09T00:48:47;102960.58;;;24.25;36.49
73245;BME280;61460;41.158;-73.238;2023-04-09T00:51:17;102960.38;;;24.28;36.34
73245;BME280;61460;41.158;-73.238;2023-04-09T00:53:48;102969.43;;;24.30;36.37
73245;BME280;61460;41.158;-73.238;2023-04-09T00:56:21;102973.93;;;24.33;36.39
73245;BME280;61460;41.158;-73.238;2023-04-09T00:58:49;102976.25;;;24.39;36.25
73245;BME280;61460;41.158;-73.238;2023-04-09T01:01:20;102980.12;;;24.42;36.29
73245;BME280;61460;41.158;-73.238;2023-04-09T01:03:51;102983.77;;;24.45;36.38
73245;BME280;61460;41.158;-73.238;2023-04-09T01:06:28;102989.75;;;24.47;36.54
73245;BME280;61460;41.158;-73.238;2023-04-09T01:08:58;102993.00;;;24.46;36.63
73245;BME280;61460;41.158;-73.238;2023-04-09T01:11:30;102993.39;;;24.45;36.59
73245;BME280;61460;41.158;-73.238;2023-04-09T01:14:00;102993.53;;;24.50;36.54
73245;BME280;61460;41.158;-73.238;2023-04-09T01:16:23;102994.46;;;24.53;36.50
73245;BME280;61460;41.158;-73.238;2023-04-09T01:18:58;102997.92;;;24.54;36.47
73245;BME280;61460;41.158;-73.238;2023-04-09T01:21:29;102999.59;;;24.60;36.33
73245;BME280;61460;41.158;-73.238;2023-04-09T01:24:01;103004.06;;;24.65;36.18
73245;BME280;61460;41.158;-73.238;2023-04-09T01:26:37;103003.57;;;24.65;36.15
73245;BME280;61460;41.158;-73.238;2023-04-09T01:28:56;102997.99;;;24.63;36.37
73245;BME280;61460;41.158;-73.238;2023-04-09T01:31:31;102995.98;;;24.64;36.61
73245;BME280;61460;41.158;-73.238;2023-04-09T01:33:59;102998.13;;;24.64;36.52
73245;BME280;61460;41.158;-73.238;2023-04-09T01:36:30;102995.75;;;24.59;36.62
73245;BME280;61460;41.158;-73.238;2023-04-09T01:39:00;102997.54;;;24.63;36.63
73245;BME280;61460;41.158;-73.238;2023-04-09T01:41:31;103000.03;;;24.63;36.61
73245;BME280;61460;41.158;-73.238;2023-04-09T01:44:01;103003.06;;;24.68;36.54
73245;BME280;61460;41.158;-73.238;2023-04-09T01:46:31;103003.44;;;24.72;36.49
73245;BME280;61460;41.158;-73.238;2023-04-09T01:49:02;102999.06;;;24.71;36.50
73245;BME280;61460;41.158;-73.238;2023-04-09T01:51:32;103005.89;;;24.78;36.42
73245;BME280;61460;41.158;-73.238;2023-04-09T01:54:04;103011.77;;;24.75;36.49
73245;BME280;61460;41.158;-73.238;2023-04-09T01:56:39;103010.26;;;24.79;36.43
73245;BME280;61460;41.158;-73.238;2023-04-09T01:59:04;103008.72;;;24.79;36.39
73245;BME280;61460;41.158;-73.238;2023-04-09T02:01:38;103017.95;;;24.79;36.43
73245;BME280;61460;41.158;-73.238;2023-04-09T02:04:09;103015.47;;;24.84;36.34
73245;BME280;61460;41.158;-73.238;2023-04-09T02:06:40;103021.31;;;24.87;36.31
73245;BME280;61460;41.158;-73.238;2023-04-09T02:09:08;103020.68;;;24.90;36.21
73245;BME280;61460;41.158;-73.238;2023-04-09T02:11:40;103015.31;;;24.89;36.28
73245;BME280;61460;41.158;-73.238;2023-04-09T02:14:08;103012.26;;;24.92;36.26
73245;BME280;61460;41.158;-73.238;2023-04-09T02:16:40;103018.60;;;24.89;36.22
73245;BME280;61460;41.158;-73.238;2023-04-09T02:19:09;103021.28;;;24.96;36.25
73245;BME280;61460;41.158;-73.238;2023-04-09T02:21:40;103024.76;;;24.96;36.20
73245;BME280;61460;41.158;-73.238;2023-04-09T02:24:11;103033.50;;;24.98;36.25
73245;BME280;61460;41.158;-73.238;2023-04-09T02:26:41;103035.10;;;24.96;36.27
73245;BME280;61460;41.158;-73.238;2023-04-09T02:29:12;103038.31;;;25.01;36.17
73245;BME280;61460;41.158;-73.238;2023-04-09T02:31:42;103038.19;;;25.00;36.27
73245;BME280;61460;41.158;-73.238;2023-04-09T02:34:13;103036.42;;;24.99;36.09
73245;BME280;61460;41.158;-73.238;2023-04-09T02:36:44;103032.96;;;24.95;36.19
73245;BME280;61460;41.158;-73.238;2023-04-09T02:39:15;103038.94;;;24.95;36.27
73245;BME280;61460;41.158;-73.238;2023-04-09T02:41:45;103037.72;;;24.98;36.14
73245;BME280;61460;41.158;-73.238;2023-04-09T02:44:16;103033.09;;;24.98;36.12
73245;BME280;61460;41.158;-73.238;2023-04-09T02:46:46;103032.10;;;24.95;36.09
73245;BME280;61460;41.158;-73.238;2023-04-09T02:49:17;103028.00;;;25.01;36.05
73245;BME280;61460;41.158;-73.238;2023-04-09T02:51:48;103034.47;;;24.98;36.16
73245;BME280;61460;41.158;-73.238;2023-04-09T02:54:18;103034.17;;;25.00;36.22
73245;BME280;61460;41.158;-73.238;2023-04-09T02:56:49;103031.37;;;24.98;36.16
73245;BME280;61460;41.158;-73.238;2023-04-09T02:59:20;103027.64;;;25.02;36.14
73245;BME280;61460;41.158;-73.238;2023-04-09T03:01:50;103027.35;;;25.01;36.23
73245;BME280;61460;41.158;-73.238;2023-04-09T03:04:20;103029.63;;;25.02;36.10
73245;BME280;61460;41.158;-73.238;2023-04-09T03:06:51;103029.69;;;24.81;36.58
73245;BME280;61460;41.158;-73.238;2023-04-09T03:09:22;103033.57;;;25.00;35.64
73245;BME280;61460;41.158;-73.238;2023-04-09T03:11:52;103029.70;;;25.00;36.03
73245;BME280;61460;41.158;-73.238;2023-04-09T03:14:23;103034.55;;;24.93;36.66
73245;BME280;61460;41.158;-73.238;2023-04-09T03:16:54;103032.57;;;25.07;36.18
73245;BME280;61460;41.158;-73.238;2023-04-09T03:19:24;103034.75;;;25.08;36.09
73245;BME280;61460;41.158;-73.238;2023-04-09T03:21:55;103035.85;;;25.10;35.99
73245;BME280;61460;41.158;-73.238;2023-04-09T03:24:26;103039.68;;;25.14;35.93
73245;BME280;61460;41.158;-73.238;2023-04-09T03:26:56;103042.57;;;25.13;35.90
73245;BME280;61460;41.158;-73.238;2023-04-09T03:29:27;103043.58;;;25.14;35.96
73245;BME280;61460;41.158;-73.238;2023-04-09T03:31:58;103043.81;;;25.14;35.97
73245;BME280;61460;41.158;-73.238;2023-04-09T03:34:28;103043.39;;;25.26;35.76
73245;BME280;61460;41.158;-73.238;2023-04-09T03:36:59;103043.35;;;25.13;35.62
73245;BME280;61460;41.158;-73.238;2023-04-09T03:39:30;103041.79;;;24.86;36.44
73245;BME280;61460;41.158;-73.238;2023-04-09T03:42:00;103046.65;;;24.93;36.47
73245;BME280;61460;41.158;-73.238;2023-04-09T03:44:31;103045.65;;;24.77;36.90
73245;BME280;61460;41.158;-73.238;2023-04-09T03:47:01;103049.27;;;24.73;36.78
73245;BME280;61460;41.158;-73.238;2023-04-09T03:49:34;103050.78;;;24.43;37.01
73245;BME280;61460;41.158;-73.238;2023-04-09T03:52:03;103043.41;;;24.44;36.65
73245;BME280;61460;41.158;-73.238;2023-04-09T03:54:33;103042.84;;;24.48;35.75
73245;BME280;61460;41.158;-73.238;2023-04-09T03:57:04;103043.46;;;24.59;35.46
73245;BME280;61460;41.158;-73.238;2023-04-09T03:59:35;103047.69;;;24.57;35.28
73245;BME280;61460;41.158;-73.238;2023-04-09T04:02:05;103052.53;;;24.58;35.56
73245;BME280;61460;41.158;-73.238;2023-04-09T04:04:36;103055.88;;;24.54;35.09
73245;BME280;61460;41.158;-73.238;2023-04-09T04:07:06;103055.70;;;24.63;35.15
73245;BME280;61460;41.158;-73.238;2023-04-09T04:09:37;103049.65;;;24.67;34.74
73245;BME280;61460;41.158;-73.238;2023-04-09T04:12:08;103051.51;;;24.61;35.04
73245;BME280;61460;41.158;-73.238;2023-04-09T04:14:38;103052.30;;;24.66;34.71
73245;BME280;61460;41.158;-73.238;2023-04-09T04:17:10;103046.94;;;24.44;34.97
73245;BME280;61460;41.158;-73.238;2023-04-09T04:19:40;103042.83;;;24.43;34.94
73245;BME280;61460;41.158;-73.238;2023-04-09T04:22:10;103045.06;;;24.30;35.19
73245;BME280;61460;41.158;-73.238;2023-04-09T04:24:41;103047.26;;;24.32;35.19
73245;BME280;61460;41.158;-73.238;2023-04-09T04:27:12;103046.81;;;24.32;35.04
73245;BME280;61460;41.158;-73.238;2023-04-09T04:29:42;103048.72;;;23.92;36.23
73245;BME280;61460;41.158;-73.238;2023-04-09T04:32:13;103044.22;;;23.86;36.20
73245;BME280;61460;41.158;-73.238;2023-04-09T04:34:48;103046.49;;;24.17;34.32
73245;BME280;61460;41.158;-73.238;2023-04-09T04:37:14;103043.76;;;24.09;34.90
73245;BME280;61460;41.158;-73.238;2023-04-09T04:39:45;103044.71;;;24.20;34.61
73245;BME280;61460;41.158;-73.238;2023-04-09T04:42:16;103042.37;;;24.13;34.68
73245;BME280;61460;41.158;-73.238;2023-04-09T04:44:46;103046.21;;;24.09;34.79
73245;BME280;61460;41.158;-73.238;2023-04-09T04:47:17;103045.68;;;24.15;34.71
73245;BME280;61460;41.158;-73.238;2023-04-09T04:49:48;103043.99;;;24.29;34.48
73245;BME280;61460;41.158;-73.238;2023-04-09T04:52:18;103044.18;;;24.13;34.75
73245;BME280;61460;41.158;-73.238;2023-04-09T04:54:49;103046.04;;;24.18;34.63
73245;BME280;61460;41.158;-73.238;2023-04-09T04:57:20;103043.52;;;24.16;35.02
73245;BME280;61460;41.158;-73.238;2023-04-09T04:59:50;103043.03;;;24.10;35.16
73245;BME280;61460;41.158;-73.238;2023-04-09T05:02:21;103041.47;;;24.07;35.35
73245;BME280;61460;41.158;-73.238;2023-04-09T05:04:52;103044.66;;;24.06;35.66
73245;BME280;61460;41.158;-73.238;2023-04-09T05:07:22;103050.74;;;23.56;37.25
73245;BME280;61460;41.158;-73.238;2023-04-09T05:09:53;103049.50;;;23.73;35.66
73245;BME280;61460;41.158;-73.238;2023-04-09T05:12:24;103053.01;;;23.92;35.63
73245;BME280;61460;41.158;-73.238;2023-04-09T05:14:54;103054.12;;;23.94;35.43
73245;BME280;61460;41.158;-73.238;2023-04-09T05:17:25;103048.63;;;23.94;35.90
73245;BME280;61460;41.158;-73.238;2023-04-09T05:19:56;103043.28;;;23.93;35.62
73245;BME280;61460;41.158;-73.238;2023-04-09T05:22:26;103039.59;;;23.93;36.09
73245;BME280;61460;41.158;-73.238;2023-04-09T05:24:57;103040.86;;;23.92;36.09
73245;BME280;61460;41.158;-73.238;2023-04-09T05:27:28;103041.32;;;23.86;36.45
73245;BME280;61460;41.158;-73.238;2023-04-09T05:29:58;103042.99;;;23.89;36.12
73245;BME280;61460;41.158;-73.238;2023-04-09T05:32:29;103042.81;;;23.93;36.25
73245;BME280;61460;41.158;-73.238;2023-04-09T05:35:00;103045.67;;;23.87;36.57
73245;BME280;61460;41.158;-73.238;2023-04-09T05:37:30;103042.84;;;23.85;36.81
73245;BME280;61460;41.158;-73.238;2023-04-09T05:40:01;103039.18;;;23.81;37.12
73245;BME280;61460;41.158;-73.238;2023-04-09T05:42:32;103039.52;;;23.38;38.11
73245;BME280;61460;41.158;-73.238;2023-04-09T05:45:03;103033.53;;;23.68;35.51
73245;BME280;61460;41.158;-73.238;2023-04-09T05:47:33;103028.90;;;23.72;36.43
73245;BME280;61460;41.158;-73.238;2023-04-09T05:50:05;103022.32;;;23.78;36.70
73245;BME280;61460;41.158;-73.238;2023-04-09T05:52:34;103021.22;;;23.78;36.64
73245;BME280;61460;41.158;-73.238;2023-04-09T05:55:05;103017.95;;;23.68;37.12
73245;BME280;61460;41.158;-73.238;2023-04-09T05:57:36;103015.09;;;23.71;36.92
73245;BME280;61460;41.158;-73.238;2023-04-09T06:00:07;103016.98;;;23.69;37.05
73245;BME280;61460;41.158;-73.238;2023-04-09T06:02:37;103016.63;;;23.62;37.28
73245;BME280;61460;41.158;-73.238;2023-04-09T06:05:08;103014.43;;;23.63;37.27
73245;BME280;61460;41.158;-73.238;2023-04-09T06:07:38;103012.29;;;23.70;37.03
73245;BME280;61460;41.158;-73.238;2023-04-09T06:10:09;103006.74;;;23.68;37.04
73245;BME280;61460;41.158;-73.238;2023-04-09T06:12:39;103002.22;;;23.73;37.16
73245;BME280;61460;41.158;-73.238;2023-04-09T06:15:11;102999.47;;;23.71;37.00
73245;BME280;61460;41.158;-73.238;2023-04-09T06:17:41;102999.08;;;23.22;38.04
73245;BME280;61460;41.158;-73.238;2023-04-09T06:20:24;102995.30;;;23.38;37.58
73245;BME280;61460;41.158;-73.238;2023-04-09T06:22:42;102996.32;;;23.56;35.54
73245;BME280;61460;41.158;-73.238;2023-04-09T06:25:13;102995.09;;;23.57;36.45
73245;BME280;61460;41.158;-73.238;2023-04-09T06:27:43;102993.55;;;23.69;33.53
73245;BME280;61460;41.158;-73.238;2023-04-09T06:30:14;102991.89;;;23.59;34.85
73245;BME280;61460;41.158;-73.238;2023-04-09T06:32:45;102990.51;;;23.70;34.89
73245;BME280;61460;41.158;-73.238;2023-04-09T06:35:15;102993.14;;;23.76;35.02
73245;BME280;61460;41.158;-73.238;2023-04-09T06:37:46;102993.85;;;23.77;35.25
73245;BME280;61460;41.158;-73.238;2023-04-09T06:40:17;102987.83;;;23.72;35.27
73245;BME280;61460;41.158;-73.238;2023-04-09T06:42:47;102981.90;;;23.74;35.39
73245;BME280;61460;41.158;-73.238;2023-04-09T06:45:18;102987.73;;;23.75;35.60
73245;BME280;61460;41.158;-73.238;2023-04-09T06:47:49;102984.84;;;23.71;35.79
73245;BME280;61460;41.158;-73.238;2023-04-09T06:50:19;102986.99;;;23.75;35.54
73245;BME280;61460;41.158;-73.238;2023-04-09T06:52:50;102982.14;;;23.77;35.79
73245;BME280;61460;41.158;-73.238;2023-04-09T06:55:21;102982.16;;;23.76;35.71
73245;BME280;61460;41.158;-73.238;2023-04-09T06:57:51;102982.16;;;23.71;34.98
73245;BME280;61460;41.158;-73.238;2023-04-09T07:00:22;102981.33;;;23.75;34.25
73245;BME280;61460;41.158;-73.238;2023-04-09T07:02:53;102981.74;;;23.62;33.96
73245;BME280;61460;41.158;-73.238;2023-04-09T07:05:23;102981.23;;;23.66;34.49
73245;BME280;61460;41.158;-73.238;2023-04-09T07:07:54;102986.02;;;23.76;34.29
73245;BME280;61460;41.158;-73.238;2023-04-09T07:10:25;102984.45;;;23.76;34.66
73245;BME280;61460;41.158;-73.238;2023-04-09T07:12:55;102981.67;;;23.69;34.85
73245;BME280;61460;41.158;-73.238;2023-04-09T07:15:26;102981.84;;;23.73;34.51
73245;BME280;61460;41.158;-73.238;2023-04-09T07:17:57;102979.11;;;23.72;34.65
73245;BME280;61460;41.158;-73.238;2023-04-09T07:20:27;102982.31;;;23.27;35.94
73245;BME280;61460;41.158;-73.238;2023-04-09T07:22:58;102982.14;;;23.59;34.01
73245;BME280;61460;41.158;-73.238;2023-04-09T07:25:29;102989.17;;;23.55;33.99
73245;BME280;61460;41.158;-73.238;2023-04-09T07:27:59;102987.90;;;23.41;33.28
73245;BME280;61460;41.158;-73.238;2023-04-09T07:30:30;102991.87;;;23.60;33.13
73245;BME280;61460;41.158;-73.238;2023-04-09T07:33:01;102988.50;;;23.58;33.61
73245;BME280;61460;41.158;-73.238;2023-04-09T07:35:31;102993.75;;;23.65;33.71
73245;BME280;61460;41.158;-73.238;2023-04-09T07:38:02;102996.07;;;23.58;33.69
73245;BME280;61460;41.158;-73.238;2023-04-09T07:40:34;102994.71;;;23.48;34.15
73245;BME280;61460;41.158;-73.238;2023-04-09T07:43:03;102997.93;;;23.40;34.24
73245;BME280;61460;41.158;-73.238;2023-04-09T07:45:34;102996.32;;;23.35;34.67
73245;BME280;61460;41.158;-73.238;2023-04-09T07:48:05;102993.89;;;22.91;36.08
73245;BME280;61460;41.158;-73.238;2023-04-09T07:50:35;102995.24;;;23.20;34.94
73245;BME280;61460;41.158;-73.238;2023-04-09T07:53:06;102996.16;;;23.20;34.24
73245;BME280;61460;41.158;-73.238;2023-04-09T07:55:37;102994.79;;;23.15;33.28
73245;BME280;61460;41.158;-73.238;2023-04-09T07:58:07;103001.49;;;23.13;33.80
73245;BME280;61460;41.158;-73.238;2023-04-09T08:00:38;103000.42;;;23.18;33.81
73245;BME280;61460;41.158;-73.238;2023-04-09T08:03:09;103001.24;;;23.22;34.03
73245;BME280;61460;41.158;-73.238;2023-04-09T08:05:39;102998.91;;;23.21;34.19
73245;BME280;61460;41.158;-73.238;2023-04-09T08:08:10;102994.66;;;23.30;34.33
73245;BME280;61460;41.158;-73.238;2023-04-09T08:10:41;102997.58;;;23.27;34.12
73245;BME280;61460;41.158;-73.238;2023-04-09T08:13:11;102997.58;;;23.34;34.03
73245;BME280;61460;41.158;-73.238;2023-04-09T08:15:42;102995.47;;;23.30;34.25
73245;BME280;61460;41.158;-73.238;2023-04-09T08:18:12;102997.47;;;23.30;34.06
73245;BME280;61460;41.158;-73.238;2023-04-09T08:20:43;102994.60;;;23.24;34.11
73245;BME280;61460;41.158;-73.238;2023-04-09T08:23:14;102995.51;;;22.80;35.28
73245;BME280;61460;41.158;-73.238;2023-04-09T08:25:44;102996.60;;;22.97;33.22
73245;BME280;61460;41.158;-73.238;2023-04-09T08:28:15;103001.29;;;23.02;34.43
73245;BME280;61460;41.158;-73.238;2023-04-09T08:30:46;102997.64;;;23.18;33.46
73245;BME280;61460;41.158;-73.238;2023-04-09T08:33:16;102999.66;;;23.22;33.44
73245;BME280;61460;41.158;-73.238;2023-04-09T08:35:47;102998.51;;;23.11;33.93
73245;BME280;61460;41.158;-73.238;2023-04-09T08:38:18;102998.86;;;23.19;33.99
73245;BME280;61460;41.158;-73.238;2023-04-09T08:40:48;103001.62;;;23.15;34.28
73245;BME280;61460;41.158;-73.238;2023-04-09T08:43:21;102998.69;;;23.19;34.19
73245;BME280;61460;41.158;-73.238;2023-04-09T08:45:50;102998.56;;;23.09;34.06
73245;BME280;61460;41.158;-73.238;2023-04-09T08:48:21;102998.71;;;22.93;33.08
73245;BME280;61460;41.158;-73.238;2023-04-09T08:50:51;103003.12;;;22.87;33.46
73245;BME280;61460;41.158;-73.238;2023-04-09T08:53:22;103002.29;;;22.92;33.43
73245;BME280;61460;41.158;-73.238;2023-04-09T08:55:52;103001.81;;;22.84;33.72
73245;BME280;61460;41.158;-73.238;2023-04-09T08:58:23;103005.76;;;22.89;33.68
73245;BME280;61460;41.158;-73.238;2023-04-09T09:00:53;103007.78;;;22.85;33.96
73245;BME280;61460;41.158;-73.238;2023-04-09T09:03:24;103013.33;;;22.94;33.65
73245;BME280;61460;41.158;-73.238;2023-04-09T09:05:55;103016.24;;;22.93;34.04
73245;BME280;61460;41.158;-73.238;2023-04-09T09:08:26;103023.89;;;22.93;34.04
73245;BME280;61460;41.158;-73.238;2023-04-09T09:10:56;103024.18;;;22.96;32.99
73245;BME280;61460;41.158;-73.238;2023-04-09T09:13:27;103025.01;;;22.45;35.06
73245;BME280;61460;41.158;-73.238;2023-04-09T09:18:36;103037.60;;;22.71;33.85
73245;BME280;61460;41.158;-73.238;2023-04-09T09:23:34;103044.67;;;22.86;33.52
73245;BME280;61460;41.158;-73.238;2023-04-09T09:28:34;103045.74;;;22.65;34.17
73245;BME280;61460;41.158;-73.238;2023-04-09T09:31:07;103050.19;;;22.63;34.57
73245;BME280;61460;41.158;-73.238;2023-04-09T09:33:32;103046.35;;;22.84;33.55
73245;BME280;61460;41.158;-73.238;2023-04-09T09:36:03;103049.90;;;22.65;33.25
73245;BME280;61460;41.158;-73.238;2023-04-09T09:38:34;103049.86;;;22.82;33.06
73245;BME280;61460;41.158;-73.238;2023-04-09T09:43:40;103057.21;;;22.70;33.44
73245;BME280;61460;41.158;-73.238;2023-04-09T09:46:06;103063.43;;;22.74;33.68
73245;BME280;61460;41.158;-73.238;2023-04-09T09:48:36;103071.13;;;22.88;33.58
73245;BME280;61460;41.158;-73.238;2023-04-09T09:51:08;103077.94;;;22.80;33.61
73245;BME280;61460;41.158;-73.238;2023-04-09T09:53:38;103085.85;;;22.78;32.78
73245;BME280;61460;41.158;-73.238;2023-04-09T09:56:13;103098.42;;;22.59;32.41
73245;BME280;61460;41.158;-73.238;2023-04-09T09:58:42;103093.40;;;22.43;34.34
73245;BME280;61460;41.158;-73.238;2023-04-09T10:01:12;103106.45;;;22.54;32.67
73245;BME280;61460;41.158;-73.238;2023-04-09T10:03:42;103115.13;;;22.61;32.79
73245;BME280;61460;41.158;-73.238;2023-04-09T10:06:11;103118.19;;;22.72;32.61
73245;BME280;61460;41.158;-73.238;2023-04-09T10:08:42;103123.44;;;22.59;33.59
73245;BME280;61460;41.158;-73.238;2023-04-09T10:11:12;103129.15;;;22.47;34.27
73245;BME280;61460;41.158;-73.238;2023-04-09T10:13:48;103128.62;;;22.39;33.70
73245;BME280;61460;41.158;-73.238;2023-04-09T10:16:13;103131.57;;;22.61;32.66
73245;BME280;61460;41.158;-73.238;2023-04-09T10:18:45;103135.32;;;22.42;33.30
73245;BME280;61460;41.158;-73.238;2023-04-09T10:21:25;103137.74;;;22.45;32.94
73245;BME280;61460;41.158;-73.238;2023-04-09T10:23:48;103141.80;;;22.41;32.89
73245;BME280;61460;41.158;-73.238;2023-04-09T10:26:17;103140.94;;;22.47;32.92
73245;BME280;61460;41.158;-73.238;2023-04-09T10:28:46;103145.02;;;22.47;33.31
73245;BME280;61460;41.158;-73.238;2023-04-09T10:31:19;103152.22;;;22.45;33.38
73245;BME280;61460;41.158;-73.238;2023-04-09T10:33:49;103154.98;;;22.55;32.45
73245;BME280;61460;41.158;-73.238;2023-04-09T10:36:18;103160.29;;;22.49;32.54
73245;BME280;61460;41.158;-73.238;2023-04-09T10:38:49;103159.78;;;22.21;34.62
73245;BME280;61460;41.158;-73.238;2023-04-09T10:41:24;103170.68;;;22.44;33.32
73245;BME280;61460;41.158;-73.238;2023-04-09T10:43:50;103175.87;;;22.49;33.05
73245;BME280;61460;41.158;-73.238;2023-04-09T10:46:25;103176.05;;;22.59;33.18
73245;BME280;61460;41.158;-73.238;2023-04-09T10:51:24;103183.47;;;22.64;32.06
73245;BME280;61460;41.158;-73.238;2023-04-09T10:53:53;103194.11;;;22.46;31.97
73245;BME280;61460;41.158;-73.238;2023-04-09T10:56:23;103194.68;;;22.42;32.80
73245;BME280;61460;41.158;-73.238;2023-04-09T10:58:54;103198.89;;;22.48;32.35
73245;BME280;61460;41.158;-73.238;2023-04-09T11:01:25;103200.79;;;22.51;32.41
73245;BME280;61460;41.158;-73.238;2023-04-09T11:06:27;103213.70;;;22.54;32.70
73245;BME280;61460;41.158;-73.238;2023-04-09T11:09:00;103208.34;;;22.48;32.66
73245;BME280;61460;41.158;-73.238;2023-04-09T11:11:27;103216.03;;;22.41;32.17
73245;BME280;61460;41.158;-73.238;2023-04-09T11:13:58;103224.10;;;22.50;32.14
73245;BME280;61460;41.158;-73.238;2023-04-09T11:16:29;103229.45;;;22.57;32.58
73245;BME280;61460;41.158;-73.238;2023-04-09T11:18:59;103232.09;;;22.67;32.99
73245;BME280;61460;41.158;-73.238;2023-04-09T11:21:30;103232.23;;;22.78;32.80
73245;BME280;61460;41.158;-73.238;2023-04-09T11:24:01;103238.99;;;22.83;33.05
73245;BME280;61460;41.158;-73.238;2023-04-09T11:26:35;103242.15;;;22.49;34.30
73245;BME280;61460;41.158;-73.238;2023-04-09T11:29:04;103246.01;;;22.75;34.04
73245;BME280;61460;41.158;-73.238;2023-04-09T11:31:33;103249.11;;;22.83;32.28
73245;BME280;61460;41.158;-73.238;2023-04-09T11:34:03;103255.14;;;22.77;31.10
73245;BME280;61460;41.158;-73.238;2023-04-09T11:36:34;103259.46;;;22.69;31.55
73245;BME280;61460;41.158;-73.238;2023-04-09T11:39:04;103263.57;;;22.87;32.17
73245;BME280;61460;41.158;-73.238;2023-04-09T11:41:36;103267.40;;;22.98;32.06
73245;BME280;61460;41.158;-73.238;2023-04-09T11:44:07;103268.20;;;22.98;32.35
73245;BME280;61460;41.158;-73.238;2023-04-09T11:46:37;103274.57;;;23.02;32.58
73245;BME280;61460;41.158;-73.238;2023-04-09T11:49:08;103278.48;;;22.96;32.79
73245;BME280;61460;41.158;-73.238;2023-04-09T11:51:38;103278.48;;;23.03;32.27
73245;BME280;61460;41.158;-73.238;2023-04-09T11:54:10;103279.50;;;22.98;30.83
73245;BME280;61460;41.158;-73.238;2023-04-09T11:56:39;103279.64;;;22.83;32.11
73245;BME280;61460;41.158;-73.238;2023-04-09T11:59:13;103281.85;;;22.91;31.60
73245;BME280;61460;41.158;-73.238;2023-04-09T12:01:40;103278.87;;;22.89;26.41
73245;BME280;61460;41.158;-73.238;2023-04-09T12:04:18;103281.35;;;22.94;28.79
73245;BME280;61460;41.158;-73.238;2023-04-09T12:06:42;103282.05;;;23.00;29.85
73245;BME280;61460;41.158;-73.238;2023-04-09T12:09:13;103288.28;;;23.08;30.55
73245;BME280;61460;41.158;-73.238;2023-04-09T12:11:44;103286.24;;;23.10;29.35
73245;BME280;61460;41.158;-73.238;2023-04-09T12:14:14;103289.42;;;22.98;28.49
73245;BME280;61460;41.158;-73.238;2023-04-09T12:16:44;103288.79;;;23.33;28.04
73245;BME280;61460;41.158;-73.238;2023-04-09T12:19:15;103289.34;;;23.35;28.23
73245;BME280;61460;41.158;-73.238;2023-04-09T12:21:47;103291.15;;;23.33;28.55
73245;BME280;61460;41.158;-73.238;2023-04-09T12:24:18;103294.41;;;23.35;29.60
73245;BME280;61460;41.158;-73.238;2023-04-09T12:26:48;103294.95;;;23.34;29.70
73245;BME280;61460;41.158;-73.238;2023-04-09T12:29:19;103294.08;;;23.34;29.74
73245;BME280;61460;41.158;-73.238;2023-04-09T12:31:48;103293.83;;;23.37;29.71
73245;BME280;61460;41.158;-73.238;2023-04-09T12:34:19;103294.01;;;23.42;29.85
73245;BME280;61460;41.158;-73.238;2023-04-09T12:36:50;103295.16;;;23.48;30.47
73245;BME280;61460;41.158;-73.238;2023-04-09T12:39:20;103297.49;;;23.47;30.33
73245;BME280;61460;41.158;-73.238;2023-04-09T12:41:51;103301.26;;;23.59;30.30
73245;BME280;61460;41.158;-73.238;2023-04-09T12:44:22;103297.40;;;23.62;29.99
73245;BME280;61460;41.158;-73.238;2023-04-09T12:46:52;103299.80;;;23.69;30.74
73245;BME280;61460;41.158;-73.238;2023-04-09T12:49:23;103303.14;;;23.66;30.70
73245;BME280;61460;41.158;-73.238;2023-04-09T12:51:54;103296.33;;;23.62;31.06
73245;BME280;61460;41.158;-73.238;2023-04-09T12:54:25;103300.30;;;23.64;30.36
73245;BME280;61460;41.158;-73.238;2023-04-09T12:56:56;103300.72;;;23.59;30.32
73245;BME280;61460;41.158;-73.238;2023-04-09T12:59:27;103302.36;;;23.63;29.60
73245;BME280;61460;41.158;-73.238;2023-04-09T13:01:57;103300.69;;;23.69;29.58